Terminal Aerodrome Forecast
Issued by NWS Wilmington, NC

Home | Current Version | Previous Version | Text Only | Print | Product List | Glossary On
Versions: 1 2 3 4 5 6 7 8 9 10 11 12 13 14 15 16
250
FTUS42 KILM 271720
TAFILM
TAF
KILM 271720Z 2718/2818 19007KT P6SM SCT050
     FM280300 VRB03KT P6SM SCT200 PROB30 2812/2814 4SM -TSRA
      OVC015CB
     FM281400 22007KT P6SM BKN070 PROB30 2814/2818 4SM -TSRA
      OVC015CB=

USA.gov is the U.S. government's official web portal to all federal, state and local government web resources and services.